Hardin, MT

6:02 PM MDT on August 20, 2014 (GMT -0600)
Custer | Change Station
CLOSE
Current Station
Personal Weather Station
Location: Waco, MT
Elevation: 2785 ft
Nearby Weather Stations

Elev 2785 ft 46.07 °N, 107.72 °W | Updated 1 minute ago

Scattered Clouds
Scattered Clouds
82.3 °F
Feels Like 81 °F
N
4.0
Wind Variable Wind from NNE
Gusts 10.0 mph

Today
High -- | Low -- °F
--% Chance of Precip.
Yesterday
High -- | Low -- °F
Precip. -- in
6:16 AM 8:09 PM
Waning Crescent, 18% visible
Pressure 29.71 in
Visibility 10.0 miles
Clouds Scattered Clouds 9000 ft
Scattered Clouds 22000 ft
Heat Index 81 °F
Dew Point 49 °F
Humidity 31%
Rainfall 0.00 in
Snow Depth Not available.
UV 2 out of 12
Pollen 7.90 out of 12
Air Quality Not available.
Flu Activity Not available.
METAR KBIL 202353Z 08010KT 10SM SCT090 SCT220 28/07 A2982 RMK AO2 SLP060 CB DSNT W SHRA DSNT SW-N T02780072 10283 20228 56007

More Conditions Fewer Conditions

Pressure 29.71 in
Visibility 10.0 miles
Clouds Scattered Clouds 9000 ft
Scattered Clouds 22000 ft
Heat Index 81 °F
Dew Point 49 °F
Humidity 31%
Rainfall 0.00 in
Snow Depth Not available.
UV 2 out of 12
Pollen 7.90 out of 12
Air Quality Not available.
Flu Activity Not available.
METAR KBIL 202353Z 08010KT 10SM SCT090 SCT220 28/07 A2982 RMK AO2 SLP060 CB DSNT W SHRA DSNT SW-N T02780072 10283 20228 56007

More Conditions Fewer Conditions

10-Day Weather Forecast

Almanac

Astronomy

Aug. 20, 2014 Rise Set
Actual Time 6:16 AM MDT 8:09 PM MDT
Civil Twilight 5:44 AM MDT 8:41 PM MDT
Nautical Twilight 5:05 AM MDT 9:20 PM MDT
Astronomical Twilight 4:22 AM MDT 10:03 PM MDT
Moon 1:53 AM MDT (8/20) 5:02 PM MDT (8/20)
Length of Visible Light 14h 56m
Length of Day
13h 53m
Tomorrow will be 2m 58s shorter.
Waning Crescent, 18% of the Moon is Illuminated
Today
Waning Crescent
Aug 25
New
Sep 2
First Quarter
Sep 8
Full
Sep 15
Last Quarter

Today's Extremes

State Highs State Lows

Community

WunderPhotos

Upload Photos

1,745,807 photos uploaded!

WunderBlogs® & News

Nearby

Snow Depth

Station Depth Elevation
Cole Creek 0 in 7850 ft
Crystal Lake 0 in 6050 ft
White Mill 1 in 8700 ft
Northeast Entrance 0 in 7350 ft
Porcupine 0 in 6500 ft

Earthquake Activity

City Distance Mag. Time & Date
No recent earthquake activity has been reported nearby.
Minimum magnitude displayed is 2.5.

Coastal Water Temperatures

Place Temperature
No Stations Reporting

Nearby Weather Stations